Aeroporto :
LOGIN :

Iscrizione | Disclaimer

   EN    FR    IT 

 










Sommario :    VFR   VFR Marginale   IFR   IFR Intensivo   IFR Molto Intensivo
Visibilità : 
Base nubi : 
>= 8 km
>= 3000ft
5 / 8 km
1000 / 3000 ft
1500m / 5 km
500 / 1000 ft
800 / 1500m
200 / 500 ft
< 800m
< 200 ft
Simboli :   Temporali  Nebbia  Neve Forte  Precipitazioni Forti  Vento > 20 kt
SIGMETs :   Varie  Temporali  Ghiacco  Turbolenza  Onda orograficha  Ceneri Vulcaniche






- Altitudine del aeroporto : 270 ft
- Codice IATA : OXF


EGTK - Oxford (Kidlington)

ULTIMO METAR :
  • 030650Z VRB02KT 3500 BKN004 13/13 Q1013

METARs OBSOLETI :
  • 030620Z 29002KT 4000 BR BKN004 12/12 Q1013
  • 030550Z 34002KT 1400 R19/P2000 PRFG VV/// 11/11 Q1013
  • 030520Z 00000KT 3000 PRFG BKN010 11/11 Q1013

TAF TAF EGTK
Valido dal 03 a 06 ore il 03 a 15 ore UTC


030558Z 0306/0315 10003KT 1400 PRFG VV///
BECMG 0306/0309 9999 NSW FEW045
PROB30
TEMPO 0310/0315 7000 SHRA



MetMap, La meteo Aeronautica in un colpo d'occhio ! - Copyright ORBIFLY Dicembre 2007 - Disclaimer

ORBIFLY MET'MAP TEAM :

Programmazione e sviluppo : Alexandra Zaïnal
Concezione : Baudouin d'Aumeries
Aiuto per la programmazione : Marc-Olivier Méhu
Supporto tecnico e logistico : Manuel Goepfert
Aiuto per la traduzione : Arnaldo La Scala

Contatto : metmap@orbifly.com




FONTI E CREDITI :

   NOAA